createdAt,value
2022-10-10T00:02:26.367Z,29.75
2022-10-10T00:04:58.662Z,19.63
2022-10-10T00:07:31.632Z,14.73
2022-10-10T00:10:04.463Z,14.48
2022-10-10T00:12:36.803Z,16.17
2022-10-10T00:15:12.147Z,21.10
2022-10-10T00:17:44.672Z,18.13
2022-10-10T00:20:19.213Z,50.50
2022-10-10T00:22:52.641Z,35.15
2022-10-10T00:25:25.270Z,29.65
2022-10-10T00:28:01.278Z,22.40
2022-10-10T00:30:33.596Z,20.77
2022-10-10T00:33:06.155Z,17.48
2022-10-10T00:35:38.694Z,21.00
2022-10-10T00:38:12.961Z,15.50
2022-10-10T00:40:47.074Z,19.25
2022-10-10T00:43:20.493Z,16.50
2022-10-10T00:45:53.314Z,19.48
2022-10-10T00:48:29.279Z,23.85
2022-10-10T00:51:05.383Z,24.45
2022-10-10T00:53:42.907Z,19.85
2022-10-10T00:56:19.023Z,21.83
2022-10-10T00:58:54.606Z,19.42
2022-10-10T01:01:27.341Z,23.67
2022-10-10T01:04:01.342Z,20.90
2022-10-10T01:06:34.410Z,20.65
2022-10-10T01:09:07.471Z,18.23
2022-10-10T01:11:51.046Z,19.70
2022-10-10T01:14:35.287Z,20.67
2022-10-10T01:17:14.281Z,17.83
2022-10-10T01:20:17.764Z,18.15
2022-10-10T01:23:06.712Z,15.85
2022-10-10T01:25:54.384Z,15.57
2022-10-10T01:28:38.555Z,19.60
2022-10-10T01:31:13.845Z,18.63
2022-10-10T01:33:54.648Z,15.23
2022-10-10T01:36:32.386Z,22.67
2022-10-10T01:39:13.130Z,25.10
2022-10-10T01:41:51.020Z,25.85
2022-10-10T01:44:23.952Z,21.52
2022-10-10T01:46:57.475Z,21.70
2022-10-10T01:49:32.443Z,25.85
2022-10-10T01:52:15.407Z,24.10
2022-10-10T01:54:58.334Z,16.23
2022-10-10T01:57:43.208Z,14.80
2022-10-10T02:00:17.970Z,17.58
2022-10-10T02:02:57.114Z,21.08
2022-10-10T02:05:34.983Z,18.90
2022-10-10T02:08:11.607Z,22.38
2022-10-10T02:10:48.205Z,17.65
2022-10-10T02:13:23.771Z,18.33
2022-10-10T02:15:59.310Z,23.10
2022-10-10T02:18:35.292Z,21.35
2022-10-10T02:21:08.230Z,19.55
2022-10-10T02:23:43.303Z,18.55
2022-10-10T02:26:17.973Z,18.10
2022-10-10T02:28:56.681Z,16.00
2022-10-10T02:31:36.979Z,16.80
2022-10-10T02:34:12.722Z,13.93
2022-10-10T02:36:49.180Z,16.35
2022-10-10T02:39:25.215Z,16.88
2022-10-10T02:41:57.636Z,16.95
2022-10-10T02:44:30.833Z,19.50
2022-10-10T02:47:04.134Z,15.27
2022-10-10T02:49:36.517Z,16.08
2022-10-10T02:52:09.866Z,16.88
2022-10-10T02:54:42.591Z,18.65
2022-10-10T02:57:14.893Z,16.60
2022-10-10T02:59:47.211Z,14.50
2022-10-10T03:02:20.175Z,16.35
2022-10-10T03:04:52.476Z,17.10
2022-10-10T03:07:25.363Z,14.15
2022-10-10T03:09:57.683Z,18.52
2022-10-10T03:12:29.978Z,14.48
2022-10-10T03:15:05.829Z,22.58
2022-10-10T03:17:40.929Z,34.50
2022-10-10T03:20:13.577Z,22.80
2022-10-10T03:22:45.872Z,22.17
2022-10-10T03:25:18.227Z,19.88
2022-10-10T03:27:50.512Z,19.80
2022-10-10T03:30:22.818Z,14.73
2022-10-10T03:32:55.826Z,18.98
2022-10-10T03:35:28.500Z,20.92
2022-10-10T03:38:01.422Z,19.83
2022-10-10T03:40:34.314Z,18.45
2022-10-10T03:43:06.815Z,17.48
2022-10-10T03:45:41.879Z,16.27
2022-10-10T03:48:15.253Z,13.90
2022-10-10T03:50:47.593Z,15.45
2022-10-10T03:53:20.026Z,14.23
2022-10-10T03:55:53.542Z,15.02
2022-10-10T03:58:25.824Z,17.85
2022-10-10T04:01:00.210Z,14.18
2022-10-10T04:03:33.318Z,15.27
2022-10-10T04:06:06.036Z,14.50
2022-10-10T04:08:38.314Z,19.42
2022-10-10T04:11:10.706Z,16.50
2022-10-10T04:13:43.089Z,15.00
2022-10-10T04:16:15.411Z,13.27
2022-10-10T04:18:48.407Z,15.38
2022-10-10T04:21:20.755Z,16.15
2022-10-10T04:23:53.086Z,13.43
2022-10-10T04:26:26.342Z,16.40
2022-10-10T04:28:58.691Z,16.05
2022-10-10T04:31:31.023Z,15.35
2022-10-10T04:34:04.029Z,17.80
2022-10-10T04:36:36.494Z,16.02
2022-10-10T04:39:08.900Z,18.05
2022-10-10T04:41:41.227Z,16.70
2022-10-10T04:44:13.547Z,22.73
2022-10-10T04:46:45.987Z,15.10
2022-10-10T04:49:19.055Z,12.35
2022-10-10T04:51:51.367Z,25.08
2022-10-10T04:54:23.776Z,16.80
2022-10-10T04:56:56.145Z,19.55
2022-10-10T04:59:28.453Z,14.27
2022-10-10T05:02:01.936Z,19.10
2022-10-10T05:04:35.110Z,20.52
2022-10-10T05:07:07.436Z,13.88
2022-10-10T05:09:39.725Z,15.50
2022-10-10T05:12:12.051Z,16.67
2022-10-10T05:14:47.914Z,18.42
2022-10-10T05:17:20.707Z,17.92
2022-10-10T05:19:53.683Z,15.18
2022-10-10T05:22:25.973Z,15.23
2022-10-10T05:24:59.191Z,17.30
2022-10-10T05:27:31.576Z,18.05
2022-10-10T05:30:04.586Z,17.83
2022-10-10T05:32:37.184Z,15.10
2022-10-10T05:35:10.192Z,17.48
2022-10-10T05:37:42.538Z,21.33
2022-10-10T05:40:14.945Z,30.10
2022-10-10T05:42:47.285Z,26.80
2022-10-10T05:45:19.668Z,21.50
2022-10-10T05:47:52.175Z,20.38
2022-10-10T05:50:32.415Z,21.27
2022-10-10T05:53:06.096Z,26.38
2022-10-10T05:55:38.697Z,28.88
2022-10-10T05:58:12.697Z,28.85
2022-10-10T06:00:46.321Z,31.40
2022-10-10T06:03:18.638Z,25.83
2022-10-10T06:05:51.813Z,24.48
2022-10-10T06:08:24.744Z,25.05
2022-10-10T06:11:02.111Z,20.98
2022-10-10T06:13:34.884Z,18.30
2022-10-10T06:16:07.177Z,17.70
2022-10-10T06:18:39.487Z,16.10
2022-10-10T06:21:12.901Z,15.63
2022-10-10T06:23:45.714Z,12.73
2022-10-10T06:26:18.203Z,14.02
2022-10-10T06:28:50.533Z,14.05
2022-10-10T06:31:22.868Z,15.57
2022-10-10T06:33:55.212Z,17.13
2022-10-10T06:36:28.213Z,20.70
2022-10-10T06:39:00.522Z,16.08
2022-10-10T06:41:32.920Z,21.17
2022-10-10T06:44:05.259Z,16.95
2022-10-10T06:46:37.647Z,13.13
2022-10-10T06:49:10.230Z,14.75
2022-10-10T06:51:43.205Z,19.17
2022-10-10T06:54:15.651Z,13.82
2022-10-10T06:56:48.063Z,13.75
2022-10-10T06:59:20.386Z,12.38
2022-10-10T07:01:52.758Z,13.93
2022-10-10T07:04:25.117Z,15.68
2022-10-10T07:06:58.095Z,13.77
2022-10-10T07:09:30.435Z,19.85
2022-10-10T07:12:02.837Z,18.95
2022-10-10T07:14:35.155Z,21.27
2022-10-10T07:17:07.455Z,19.00
2022-10-10T07:19:40.040Z,21.98
2022-10-10T07:22:13.060Z,22.05
2022-10-10T07:24:45.367Z,25.17
2022-10-10T07:27:17.713Z,25.05
2022-10-10T07:29:50.039Z,24.13
2022-10-10T07:32:22.343Z,30.50
2022-10-10T07:34:57.564Z,25.33
2022-10-10T07:37:30.510Z,33.28
2022-10-10T07:40:03.419Z,30.08
2022-10-10T07:42:35.967Z,33.63
2022-10-10T07:45:11.443Z,26.48
2022-10-10T07:47:44.137Z,34.95
2022-10-10T07:50:16.471Z,34.72
2022-10-10T07:52:49.448Z,31.00
2022-10-10T07:55:21.784Z,32.38
2022-10-10T07:57:54.548Z,34.72
2022-10-10T08:00:27.194Z,29.30
2022-10-10T08:02:59.510Z,27.35
2022-10-10T08:05:31.831Z,25.70
2022-10-10T08:08:05.104Z,27.20
2022-10-10T08:10:37.586Z,34.33
2022-10-10T08:13:09.944Z,23.80
2022-10-10T08:15:42.284Z,23.75
2022-10-10T08:18:14.564Z,22.75
2022-10-10T08:20:46.956Z,23.10
2022-10-10T08:23:23.149Z,23.17
2022-10-10T08:25:58.607Z,27.63
2022-10-10T08:28:31.353Z,28.27
2022-10-10T08:31:06.113Z,24.13
2022-10-10T08:33:39.879Z,22.20
2022-10-10T08:36:15.098Z,24.35
2022-10-10T08:38:49.058Z,23.83
2022-10-10T08:41:33.651Z,23.90
2022-10-10T08:44:13.898Z,31.27
2022-10-10T08:46:51.305Z,23.50
2022-10-10T08:49:28.486Z,28.85
2022-10-10T08:52:06.626Z,24.98
2022-10-10T08:54:42.395Z,26.25
2022-10-10T08:57:24.582Z,29.85
2022-10-10T09:00:01.845Z,23.30
2022-10-10T09:02:55.785Z,26.77
2022-10-10T09:05:43.944Z,25.40
2022-10-10T09:08:34.355Z,31.45
2022-10-10T09:11:19.414Z,29.35
2022-10-10T09:14:01.601Z,29.33
2022-10-10T09:16:40.188Z,30.60
2022-10-10T09:19:26.797Z,30.27
2022-10-10T09:22:02.959Z,24.63
2022-10-10T09:24:42.652Z,27.20
2022-10-10T09:27:22.387Z,28.83
2022-10-10T09:30:00.887Z,30.90
2022-10-10T09:32:38.990Z,30.83
2022-10-10T09:35:19.135Z,25.85
2022-10-10T09:37:57.187Z,24.10
2022-10-10T09:40:33.754Z,20.05
2022-10-10T09:43:13.550Z,20.27
2022-10-10T09:45:51.042Z,22.65
2022-10-10T09:48:28.937Z,23.52
2022-10-10T09:51:04.330Z,24.08
2022-10-10T09:53:36.673Z,25.45
2022-10-10T09:56:17.066Z,16.98
2022-10-10T09:58:51.480Z,26.02
2022-10-10T10:01:26.557Z,19.52
2022-10-10T10:04:29.713Z,22.17
2022-10-10T10:07:16.970Z,19.75
2022-10-10T10:09:50.627Z,13.15
2022-10-10T10:12:24.933Z,20.02
2022-10-10T10:15:04.915Z,12.32
2022-10-10T10:17:37.288Z,13.93
2022-10-10T10:20:32.319Z,14.43
2022-10-10T10:23:05.564Z,16.25
2022-10-10T10:25:38.462Z,13.23
2022-10-10T10:28:20.270Z,16.55
2022-10-10T10:30:54.892Z,15.05
2022-10-10T10:33:45.181Z,12.60
2022-10-10T10:36:30.814Z,15.88
2022-10-10T10:39:14.555Z,30.73
2022-10-10T10:41:52.703Z,10.90
2022-10-10T10:44:35.887Z,10.88
2022-10-10T10:47:28.434Z,12.60
2022-10-10T10:50:14.899Z,15.07
2022-10-10T10:52:57.208Z,9.50
2022-10-10T10:55:39.600Z,11.60
2022-10-10T11:01:55.867Z,11.52
2022-10-10T11:05:22.968Z,9.35
2022-10-10T11:07:58.648Z,11.55
2022-10-10T11:10:41.616Z,7.60
2022-10-10T11:13:23.797Z,11.73
2022-10-10T11:16:09.779Z,8.70
2022-10-10T11:19:06.221Z,11.38
2022-10-10T11:21:53.459Z,8.65
2022-10-10T11:24:38.498Z,10.20
2022-10-10T11:27:17.566Z,8.93
2022-10-10T11:29:58.655Z,7.32
2022-10-10T11:32:37.031Z,11.15
2022-10-10T11:35:17.870Z,12.30
2022-10-10T11:37:58.306Z,8.38
2022-10-10T11:40:36.427Z,11.65
2022-10-10T11:43:16.462Z,11.75
2022-10-10T11:45:58.452Z,8.38
2022-10-10T11:48:42.946Z,7.50
2022-10-10T11:51:35.741Z,10.65
2022-10-10T11:54:20.414Z,9.48
2022-10-10T11:56:58.270Z,9.90
2022-10-10T11:59:36.052Z,10.20
2022-10-10T12:02:18.193Z,8.95
2022-10-10T12:04:50.910Z,9.50
2022-10-10T12:07:28.052Z,9.02
2022-10-10T12:10:07.097Z,8.27
2022-10-10T12:12:44.104Z,9.35
2022-10-10T12:15:27.722Z,10.57
2022-10-10T12:18:00.508Z,9.85
2022-10-10T12:20:34.725Z,8.63
2022-10-10T12:23:33.228Z,9.40
2022-10-10T12:26:12.322Z,9.45
2022-10-10T12:29:03.050Z,8.27
2022-10-10T12:31:36.748Z,11.32
2022-10-10T12:34:16.620Z,11.77
2022-10-10T12:37:10.666Z,10.52
2022-10-10T12:40:15.871Z,7.68
2022-10-10T12:43:04.721Z,14.98
2022-10-10T12:46:19.131Z,14.82
2022-10-10T12:49:19.693Z,9.77
2022-10-10T12:52:01.961Z,9.07
2022-10-10T12:54:41.597Z,11.93
2022-10-10T12:57:20.528Z,10.77
2022-10-10T12:59:54.609Z,8.52
2022-10-10T13:02:29.239Z,11.63
2022-10-10T13:05:04.092Z,8.93
2022-10-10T13:07:38.263Z,9.55
2022-10-10T13:10:20.865Z,9.13
2022-10-10T13:13:01.128Z,9.52
2022-10-10T13:15:34.746Z,8.15
2022-10-10T13:18:07.078Z,14.27
2022-10-10T13:20:40.394Z,8.98
2022-10-10T13:23:14.390Z,9.05
2022-10-10T13:25:46.735Z,9.68
2022-10-10T13:28:21.123Z,9.00
2022-10-10T13:30:54.599Z,9.55
2022-10-10T13:36:42.749Z,10.77
2022-10-10T13:39:37.431Z,11.18
2022-10-10T13:42:35.178Z,9.48
2022-10-10T13:45:30.672Z,7.25
2022-10-10T13:48:24.963Z,7.13
2022-10-10T13:51:04.657Z,9.32
2022-10-10T13:57:02.104Z,7.68
2022-10-10T14:00:01.524Z,9.35
2022-10-10T14:02:43.755Z,9.38
2022-10-10T14:05:23.338Z,8.32
2022-10-10T14:07:57.551Z,8.10
2022-10-10T14:10:33.015Z,9.05
2022-10-10T14:13:05.395Z,6.95
2022-10-10T14:15:44.503Z,8.25
2022-10-10T14:18:18.881Z,9.65
2022-10-10T14:20:53.215Z,7.72
2022-10-10T14:23:25.524Z,7.40
2022-10-10T14:25:58.039Z,7.70
2022-10-10T14:28:32.579Z,6.80
2022-10-10T14:31:05.873Z,7.43
2022-10-10T14:33:38.829Z,7.95
2022-10-10T14:36:13.015Z,7.78
2022-10-10T14:38:45.342Z,9.13
2022-10-10T14:41:17.606Z,8.35
2022-10-10T14:43:49.914Z,8.43
2022-10-10T14:46:22.215Z,9.32
2022-10-10T14:48:54.537Z,9.68
2022-10-10T14:51:34.445Z,8.55
2022-10-10T14:54:13.575Z,9.85
2022-10-10T14:57:09.413Z,7.03
2022-10-10T14:59:47.433Z,8.15
2022-10-10T15:02:21.974Z,10.45
2022-10-10T15:04:54.500Z,8.90
2022-10-10T15:07:27.589Z,8.18
2022-10-10T15:10:32.101Z,8.35
2022-10-10T15:12:52.307Z,11.38
2022-10-10T15:15:24.629Z,12.57
2022-10-10T15:17:57.450Z,7.72
2022-10-10T15:20:32.664Z,8.63
2022-10-10T15:23:07.964Z,7.53
2022-10-10T15:25:42.657Z,7.68
2022-10-10T15:28:15.042Z,8.02
2022-10-10T15:30:47.485Z,9.80
2022-10-10T15:33:20.212Z,13.07
2022-10-10T15:36:09.075Z,9.10
2022-10-10T15:38:43.080Z,12.35
2022-10-10T15:41:16.226Z,11.25
2022-10-10T15:43:51.867Z,8.68
2022-10-10T15:46:26.561Z,9.30
2022-10-10T15:49:00.728Z,11.80
2022-10-10T15:51:33.069Z,10.23
2022-10-10T15:54:06.208Z,11.15
2022-10-10T15:56:38.725Z,10.52
2022-10-10T15:59:12.682Z,19.67
2022-10-10T16:01:45.016Z,16.77
2022-10-10T16:04:17.374Z,17.33
2022-10-10T16:06:54.561Z,22.35
2022-10-10T16:09:39.197Z,17.58
2022-10-10T16:12:11.679Z,22.52
2022-10-10T16:14:44.014Z,27.60
2022-10-10T16:17:20.755Z,38.30
2022-10-10T16:19:55.371Z,18.23
2022-10-10T16:22:27.842Z,21.63
2022-10-10T16:25:30.675Z,30.02
2022-10-10T16:27:53.174Z,18.40
2022-10-10T16:30:25.499Z,11.98
2022-10-10T16:32:58.455Z,24.80
2022-10-10T16:35:30.762Z,17.20
2022-10-10T16:38:03.481Z,13.02
2022-10-10T16:40:36.526Z,15.15
2022-10-10T16:43:08.863Z,13.38
2022-10-10T16:45:42.279Z,12.52
2022-10-10T16:48:14.699Z,11.00
2022-10-10T16:50:47.071Z,12.38
2022-10-10T16:53:19.401Z,13.07
2022-10-10T16:55:52.403Z,13.38
2022-10-10T16:58:24.816Z,17.92
2022-10-10T17:00:59.392Z,18.20
2022-10-10T17:03:33.655Z,13.73
2022-10-10T17:06:08.753Z,14.32
2022-10-10T17:08:41.562Z,11.55
2022-10-10T17:11:14.607Z,20.00
2022-10-10T17:13:48.379Z,20.13
2022-10-10T17:16:59.700Z,28.25
2022-10-10T17:19:15.341Z,30.77
2022-10-10T17:21:47.725Z,28.77
2022-10-10T17:24:20.156Z,20.08
2022-10-10T17:26:53.379Z,18.42
2022-10-10T17:29:25.852Z,33.88
2022-10-10T17:32:00.600Z,27.08
2022-10-10T17:34:36.663Z,41.60
2022-10-10T17:37:09.083Z,51.47
2022-10-10T17:39:41.382Z,44.33
2022-10-10T17:42:14.424Z,47.42
2022-10-10T17:44:51.456Z,47.50
2022-10-10T17:47:27.774Z,46.22
2022-10-10T17:50:00.133Z,44.50
2022-10-10T17:52:32.519Z,48.63
2022-10-10T17:55:05.750Z,50.63
2022-10-10T17:57:38.690Z,53.05
2022-10-10T18:00:12.427Z,60.15
2022-10-10T18:02:44.752Z,63.75
2022-10-10T18:05:17.250Z,45.60
2022-10-10T18:07:49.911Z,45.97
2022-10-10T18:10:22.347Z,52.28
2022-10-10T18:12:55.714Z,50.45
2022-10-10T18:15:28.497Z,43.60
2022-10-10T18:18:00.898Z,48.97
2022-10-10T18:20:36.452Z,42.70
2022-10-10T18:23:08.738Z,43.60
2022-10-10T18:25:41.083Z,54.33
2022-10-10T18:28:14.058Z,58.03
2022-10-10T18:30:46.425Z,56.78
2022-10-10T18:33:18.695Z,58.58
2022-10-10T18:35:51.076Z,55.72
2022-10-10T18:38:23.448Z,48.60
2022-10-10T18:41:03.980Z,45.72
2022-10-10T18:43:37.810Z,57.03
2022-10-10T18:46:11.748Z,57.95
2022-10-10T18:48:47.161Z,60.08
2022-10-10T18:51:25.249Z,57.60
2022-10-10T18:54:01.340Z,70.95
2022-10-10T18:56:35.101Z,61.33
2022-10-10T18:59:11.508Z,66.32
2022-10-10T19:01:45.636Z,65.43
2022-10-10T19:04:19.906Z,58.40
2022-10-10T19:06:57.084Z,59.55
2022-10-10T19:09:30.234Z,61.03
2022-10-10T19:12:02.786Z,57.95
2022-10-10T19:14:36.767Z,63.70
2022-10-10T19:17:09.544Z,57.30
2022-10-10T19:19:41.854Z,61.85
2022-10-10T19:22:14.218Z,57.80
2022-10-10T19:24:46.743Z,59.63
2022-10-10T19:27:19.133Z,62.40
2022-10-10T19:29:52.424Z,58.03
2022-10-10T19:32:26.893Z,58.33
2022-10-10T19:34:59.204Z,61.42
2022-10-10T19:37:31.594Z,61.03
2022-10-10T19:40:04.655Z,55.85
2022-10-10T19:42:37.009Z,57.75
2022-10-10T19:45:10.641Z,55.95
2022-10-10T19:47:42.999Z,52.75
2022-10-10T19:50:15.396Z,57.85
2022-10-10T19:52:47.728Z,67.43
2022-10-10T19:55:20.018Z,52.55
2022-10-10T19:57:52.356Z,53.03
2022-10-10T20:00:25.467Z,58.97
2022-10-10T20:02:57.811Z,57.75
2022-10-10T20:05:30.210Z,48.90
2022-10-10T20:08:02.501Z,54.22
2022-10-10T20:10:34.963Z,51.33
2022-10-10T20:13:10.693Z,61.40
2022-10-10T20:15:45.083Z,49.42
2022-10-10T20:18:18.993Z,52.60
2022-10-10T20:20:52.348Z,43.47
2022-10-10T20:23:25.293Z,40.72
2022-10-10T20:25:57.598Z,32.55
2022-10-10T20:28:31.296Z,33.33
2022-10-10T20:31:04.607Z,38.22
2022-10-10T20:33:36.948Z,39.47
2022-10-10T20:36:09.903Z,37.08
2022-10-10T20:38:42.820Z,49.65
2022-10-10T20:41:15.103Z,50.95
2022-10-10T20:43:47.654Z,48.33
2022-10-10T20:46:20.627Z,48.40
2022-10-10T20:48:53.595Z,41.28
2022-10-10T20:51:26.832Z,45.88
2022-10-10T20:54:01.181Z,48.17
2022-10-10T20:56:34.769Z,47.50
2022-10-10T20:59:07.386Z,46.42
2022-10-10T21:01:40.416Z,41.88
2022-10-10T21:04:13.607Z,43.67
2022-10-10T21:06:45.901Z,54.95
2022-10-10T21:09:18.207Z,46.65
2022-10-10T21:11:51.099Z,46.30
2022-10-10T21:14:23.693Z,43.58
2022-10-10T21:16:56.659Z,43.67
2022-10-10T21:19:29.259Z,42.80
2022-10-10T21:22:01.575Z,38.08
2022-10-10T21:24:33.901Z,37.60
2022-10-10T21:27:06.167Z,39.80
2022-10-10T21:29:38.493Z,36.67
2022-10-10T21:32:11.442Z,42.60
2022-10-10T21:34:43.727Z,46.38
2022-10-10T21:37:16.010Z,45.05
2022-10-10T21:39:48.283Z,42.75
2022-10-10T21:42:20.574Z,42.65
2022-10-10T21:44:52.904Z,39.88
2022-10-10T21:47:26.319Z,39.80
2022-10-10T21:49:58.635Z,33.25
2022-10-10T21:52:30.938Z,33.58
2022-10-10T21:55:03.779Z,41.80
2022-10-10T21:57:36.066Z,42.42
2022-10-10T22:00:09.850Z,37.30
2022-10-10T22:02:42.817Z,49.05
2022-10-10T22:05:15.514Z,35.00
2022-10-10T22:07:47.824Z,37.33
2022-10-10T22:10:20.298Z,41.90
2022-10-10T22:12:52.887Z,34.65
2022-10-10T22:15:25.534Z,29.65
2022-10-10T22:17:58.474Z,26.65
2022-10-10T22:20:30.821Z,28.15
2022-10-10T22:23:03.111Z,18.42
2022-10-10T22:25:35.414Z,16.67
2022-10-10T22:28:07.784Z,18.75
2022-10-10T22:30:40.557Z,19.75
2022-10-10T22:33:13.851Z,30.33
2022-10-10T22:35:46.864Z,25.40
2022-10-10T22:38:19.190Z,23.95
2022-10-10T22:40:51.510Z,22.85
2022-10-10T22:43:26.780Z,18.08
2022-10-10T22:45:59.598Z,19.30
2022-10-10T22:48:32.562Z,24.52
2022-10-10T22:51:07.743Z,17.85
2022-10-10T22:53:41.040Z,19.52
2022-10-10T22:56:14.823Z,19.50
2022-10-10T22:58:48.685Z,21.20
2022-10-10T23:01:22.998Z,17.58
2022-10-10T23:03:56.886Z,20.20
2022-10-10T23:06:29.249Z,15.40
2022-10-10T23:09:01.625Z,16.13
2022-10-10T23:11:33.974Z,16.65
2022-10-10T23:14:06.328Z,18.23
2022-10-10T23:16:40.916Z,14.02
2022-10-10T23:19:13.975Z,16.60
2022-10-10T23:21:46.360Z,17.42
2022-10-10T23:24:18.659Z,18.25
2022-10-10T23:26:51.054Z,15.98
2022-10-10T23:29:23.349Z,19.02
2022-10-10T23:31:55.683Z,25.13
2022-10-10T23:34:28.638Z,15.80
2022-10-10T23:37:01.482Z,15.75
2022-10-10T23:39:33.799Z,15.40
2022-10-10T23:42:06.206Z,18.98
2022-10-10T23:44:38.489Z,17.42
2022-10-10T23:47:11.551Z,20.90
2022-10-10T23:49:44.846Z,19.40
2022-10-10T23:52:17.237Z,15.57
2022-10-10T23:54:49.591Z,21.85
2022-10-10T23:57:21.892Z,16.48
2022-10-10T23:59:54.174Z,18.15
